Time;durP1;ratioP1;P1;durP2;ratioP2;P2;SDS_P1;SDS_P2;PMS_P1;PMS_P2;Temp;Humidity;BMP_temperature;BMP_pressure;BME280_temperature;BME280_humidity;BME280_pressure;Samples;Min_cycle;Max_cycle;Signal;HPM_P1;HPM_P2
2022/08/28 00:02:18;;;;;;;4.40;4.10;;;22.00;99.90;;;;;;1950373;72;22267;-77
2022/08/28 00:05:11;;;;;;;5.30;4.53;;;22.10;99.90;;;;;;1918209;73;21142;-77
2022/08/28 00:08:08;;;;;;;4.72;4.33;;;22.10;99.90;;;;;;1923267;73;21123;-77
2022/08/28 00:11:01;;;;;;;4.60;4.20;;;22.00;99.90;;;;;;1931367;73;21146;-77
2022/08/28 00:13:52;;;;;;;4.80;4.40;;;21.90;99.90;;;;;;1932387;73;21127;-77
2022/08/28 00:16:45;;;;;;;4.92;4.20;;;21.90;99.90;;;;;;1935895;73;21118;-77
2022/08/28 00:19:37;;;;;;;4.40;4.00;;;21.90;99.90;;;;;;1929159;73;21052;-78
2022/08/28 00:22:29;;;;;;;4.35;3.95;;;21.90;99.90;;;;;;1921333;73;21082;-79
2022/08/28 00:28:02;;;;;;;4.67;4.30;;;21.80;99.90;;;;;;1937128;72;23297;-78
2022/08/28 00:30:58;;;;;;;4.53;3.98;;;21.90;99.90;;;;;;1910120;74;21220;-78
2022/08/28 00:36:29;;;;;;;6.30;4.30;;;21.80;99.90;;;;;;1927447;72;22143;-78
2022/08/28 00:39:20;;;;;;;6.03;4.10;;;21.80;99.90;;;;;;1919048;73;21102;-78
2022/08/28 00:42:11;;;;;;;4.53;4.03;;;21.80;99.90;;;;;;1926081;73;21050;-78
2022/08/28 00:45:02;;;;;;;5.10;4.45;;;21.80;99.90;;;;;;1918254;73;21525;-78
2022/08/28 00:47:54;;;;;;;4.17;3.87;;;21.70;99.90;;;;;;1868637;76;21086;-78
2022/08/28 00:53:57;;;;;;;4.35;3.95;;;21.70;99.90;;;;;;1918518;73;21145;-76
2022/08/28 00:56:52;;;;;;;4.12;3.75;;;21.60;99.90;;;;;;1932516;73;21172;-77
2022/08/28 00:59:44;;;;;;;4.35;4.05;;;21.70;99.90;;;;;;1927421;73;21132;-76
2022/08/28 01:02:36;;;;;;;5.15;4.70;;;21.70;99.90;;;;;;1939978;73;21139;-76
2022/08/28 01:05:28;;;;;;;5.03;4.33;;;21.60;99.90;;;;;;1922172;73;21127;-76
2022/08/28 01:08:20;;;;;;;4.42;3.85;;;21.60;99.90;;;;;;1917644;73;21101;-77
2022/08/28 01:11:16;;;;;;;4.83;4.20;;;21.50;99.90;;;;;;1921346;73;21153;-77
2022/08/28 01:14:08;;;;;;;4.12;3.80;;;21.60;99.90;;;;;;1917732;73;21112;-76
2022/08/28 01:17:01;;;;;;;4.90;4.50;;;21.60;99.90;;;;;;1919278;73;21160;-76
2022/08/28 01:19:56;;;;;;;5.87;3.95;;;21.50;99.90;;;;;;1917399;73;21134;-76
2022/08/28 01:22:52;;;;;;;4.30;3.90;;;21.50;99.90;;;;;;1918336;73;21086;-76
2022/08/28 01:28:27;;;;;;;4.28;3.87;;;21.60;99.90;;;;;;1924363;72;22216;-78
2022/08/28 01:31:19;;;;;;;4.80;4.35;;;21.70;99.90;;;;;;1899060;75;21136;-77
2022/08/28 01:34:12;;;;;;;5.95;4.08;;;21.60;99.90;;;;;;1889115;75;21125;-77
2022/08/28 01:37:04;;;;;;;6.17;4.15;;;21.60;99.90;;;;;;1889119;75;21537;-77
2022/08/28 01:39:55;;;;;;;4.50;4.10;;;21.50;99.90;;;;;;1898246;75;21197;-77
2022/08/28 01:42:47;;;;;;;5.97;4.20;;;21.50;99.90;;;;;;1898222;75;21051;-77
2022/08/28 01:45:39;;;;;;;5.22;4.20;;;21.40;99.90;;;;;;1895878;75;21063;-78
2022/08/28 01:48:33;;;;;;;4.35;3.98;;;21.40;99.90;;;;;;1895801;75;21573;-77
2022/08/28 01:51:25;;;;;;;4.47;3.95;;;21.40;99.90;;;;;;1910095;75;21169;-79
2022/08/28 01:54:16;;;;;;;5.83;3.92;;;21.40;99.90;;;;;;1887617;75;21124;-77
2022/08/28 01:57:08;;;;;;;5.70;3.70;;;21.30;99.90;;;;;;1897360;75;21160;-77
2022/08/28 01:59:59;;;;;;;4.42;4.00;;;21.20;99.90;;;;;;1902380;75;21080;-77
2022/08/28 02:02:54;;;;;;;5.35;4.60;;;21.20;99.90;;;;;;1888507;75;21038;-77
2022/08/28 02:08:29;;;;;;;6.53;5.92;;;21.10;99.90;;;;;;1947219;72;22091;-77
2022/08/28 02:11:21;;;;;;;5.97;5.37;;;21.10;99.90;;;;;;1904261;75;21118;-76
2022/08/28 02:14:12;;;;;;;5.92;5.42;;;21.10;99.90;;;;;;1909148;75;21206;-77
2022/08/28 02:17:03;;;;;;;5.67;5.20;;;21.10;99.90;;;;;;1884640;75;21195;-77
2022/08/28 02:19:55;;;;;;;5.97;5.30;;;21.00;99.90;;;;;;1893633;75;21109;-78
2022/08/28 02:22:46;;;;;;;4.90;4.40;;;21.10;99.90;;;;;;1892024;75;21039;-77
2022/08/28 02:25:37;;;;;;;5.25;4.78;;;21.10;99.90;;;;;;1899208;75;21070;-75
2022/08/28 02:28:28;;;;;;;5.15;4.50;;;21.10;99.90;;;;;;1897204;75;21059;-75
2022/08/28 02:31:19;;;;;;;5.08;4.65;;;21.10;99.90;;;;;;1886043;75;21071;-75
2022/08/28 02:34:10;;;;;;;6.65;4.53;;;21.10;99.90;;;;;;1887833;75;21169;-75
2022/08/28 02:37:01;;;;;;;5.03;4.62;;;21.10;99.90;;;;;;1895762;74;21054;-75
2022/08/28 02:39:55;;;;;;;5.10;4.67;;;21.10;99.90;;;;;;1896438;75;21047;-75
2022/08/28 02:42:47;;;;;;;5.20;4.67;;;21.00;99.90;;;;;;1897869;75;21059;-75
2022/08/28 02:45:38;;;;;;;5.47;4.70;;;21.00;99.90;;;;;;1897751;75;21071;-75
2022/08/28 02:48:30;;;;;;;5.20;4.80;;;20.90;99.90;;;;;;1889515;75;21047;-75
2022/08/28 02:51:21;;;;;;;5.25;4.65;;;20.90;99.90;;;;;;1893650;75;21506;-75
2022/08/28 02:54:13;;;;;;;7.20;4.83;;;20.90;99.90;;;;;;1887522;75;21070;-75
2022/08/28 02:57:06;;;;;;;5.03;4.58;;;20.80;99.90;;;;;;1897128;75;21059;-75
2022/08/28 02:59:58;;;;;;;6.00;4.87;;;20.80;99.90;;;;;;1901692;75;21591;-75
2022/08/28 03:02:51;;;;;;;5.22;4.42;;;20.80;99.90;;;;;;1891770;75;21055;-75
2022/08/28 03:05:42;;;;;;;6.33;5.00;;;20.80;99.90;;;;;;1896732;75;21062;-75
2022/08/28 03:11:13;;;;;;;5.40;4.08;;;20.70;99.90;;;;;;1917653;72;22143;-77
2022/08/28 03:14:04;;;;;;;5.25;3.80;;;20.70;99.90;;;;;;1889216;75;21075;-76
2022/08/28 03:16:55;;;;;;;4.65;4.28;;;20.70;99.90;;;;;;1881378;75;21094;-76
2022/08/28 03:19:48;;;;;;;4.92;4.42;;;20.70;99.90;;;;;;1882036;75;21066;-76
2022/08/28 03:25:50;;;;;;;5.30;4.80;;;20.60;99.90;;;;;;1882474;75;21181;-77
2022/08/28 03:28:43;;;;;;;4.95;4.55;;;20.50;99.90;;;;;;1888418;75;21102;-76
2022/08/28 03:31:35;;;;;;;5.30;4.80;;;20.50;99.90;;;;;;1884487;75;21145;-76
2022/08/28 03:34:26;;;;;;;5.22;4.72;;;20.40;99.90;;;;;;1901677;75;21156;-76
2022/08/28 03:37:17;;;;;;;5.25;4.85;;;20.40;99.90;;;;;;1886614;75;21120;-78
2022/08/28 03:40:12;;;;;;;6.05;5.05;;;20.40;99.90;;;;;;1900276;75;21522;-77
2022/08/28 03:43:03;;;;;;;5.67;5.17;;;20.40;99.90;;;;;;1893043;75;21629;-77
2022/08/28 03:45:59;;;;;;;4.92;4.53;;;20.40;99.90;;;;;;1890365;75;21078;-77
2022/08/28 03:48:50;;;;;;;4.90;4.45;;;20.40;99.90;;;;;;1888213;75;21594;-78
2022/08/28 03:51:43;;;;;;;5.35;4.95;;;20.40;99.90;;;;;;1901655;75;21223;-77
2022/08/28 03:54:38;;;;;;;5.87;4.50;;;20.40;99.90;;;;;;1898518;75;21153;-79
2022/08/28 03:57:30;;;;;;;5.42;4.15;;;20.30;99.90;;;;;;1882052;75;21055;-78
2022/08/28 04:03:03;;;;;;;5.50;4.72;;;20.30;99.90;;;;;;1942630;72;22134;-78
2022/08/28 04:06:03;;;;;;;5.08;4.58;;;20.30;99.90;;;;;;1882678;75;21061;-78
2022/08/28 04:08:54;;;;;;;5.17;4.62;;;20.40;99.90;;;;;;1902359;75;21172;-78
2022/08/28 04:11:47;;;;;;;5.03;4.62;;;20.30;99.90;;;;;;1889183;75;21067;-77
2022/08/28 04:17:19;;;;;;;5.30;4.78;;;20.30;99.90;;;;;;1934688;72;22121;-76
2022/08/28 04:20:11;;;;;;;5.25;4.75;;;20.30;99.90;;;;;;1897240;75;21106;-77
2022/08/28 04:23:03;;;;;;;5.28;4.80;;;20.30;99.90;;;;;;1899021;75;21044;-77
2022/08/28 04:25:54;;;;;;;5.25;4.85;;;20.30;99.90;;;;;;1895126;75;21113;-78
2022/08/28 04:28:47;;;;;;;5.12;4.60;;;20.20;99.90;;;;;;1906802;74;21079;-78
2022/08/28 04:31:38;;;;;;;5.67;5.17;;;20.30;99.90;;;;;;1891047;75;21088;-78
2022/08/28 04:34:29;;;;;;;5.22;4.72;;;20.30;99.90;;;;;;1896453;75;21102;-79
2022/08/28 04:37:21;;;;;;;5.50;4.62;;;20.30;99.90;;;;;;1891835;75;21094;-78
2022/08/28 04:40:14;;;;;;;6.00;4.65;;;20.20;99.90;;;;;;1895544;75;21114;-78
2022/08/28 04:43:06;;;;;;;7.47;4.85;;;20.20;99.90;;;;;;1882352;75;21042;-78
2022/08/28 04:45:57;;;;;;;5.30;4.83;;;20.20;99.90;;;;;;1903059;75;21106;-78
2022/08/28 04:48:49;;;;;;;6.08;4.85;;;20.30;99.90;;;;;;1894522;75;21047;-77
2022/08/28 04:51:41;;;;;;;4.85;4.45;;;20.30;99.90;;;;;;1887445;75;21204;-78
2022/08/28 04:54:34;;;;;;;5.22;4.72;;;20.30;99.90;;;;;;1891777;75;21044;-77
2022/08/28 04:57:25;;;;;;;5.50;4.95;;;20.40;99.90;;;;;;1893803;75;21094;-78
2022/08/28 05:00:17;;;;;;;8.08;5.00;;;20.40;99.90;;;;;;1893800;75;21059;-79
2022/08/28 05:03:10;;;;;;;5.40;4.80;;;20.50;99.90;;;;;;1889490;75;21102;-79
2022/08/28 05:06:02;;;;;;;5.80;4.67;;;20.40;99.90;;;;;;1905498;75;21090;-79
2022/08/28 05:08:53;;;;;;;5.62;4.97;;;20.40;99.90;;;;;;1897992;75;21471;-79
2022/08/28 05:11:45;;;;;;;6.30;5.40;;;20.50;99.90;;;;;;1899407;75;21047;-79
2022/08/28 05:14:36;;;;;;;6.05;5.05;;;20.50;99.90;;;;;;1900112;75;21058;-79
2022/08/28 05:17:28;;;;;;;6.30;5.12;;;20.60;99.90;;;;;;1905490;74;21097;-79
2022/08/28 05:20:21;;;;;;;5.20;4.80;;;20.50;99.90;;;;;;1924209;74;21087;-79
2022/08/28 05:23:23;;;;;;;6.35;5.85;;;20.50;99.90;;;;;;1916761;74;21082;-77
2022/08/28 05:26:18;;;;;;;6.40;5.62;;;20.70;99.90;;;;;;1855195;77;21158;-77
2022/08/28 05:29:10;;;;;;;6.05;5.45;;;20.80;99.90;;;;;;1904320;74;21098;-78
2022/08/28 05:32:02;;;;;;;6.22;5.17;;;20.90;99.90;;;;;;1885921;76;21104;-78
2022/08/28 05:34:54;;;;;;;5.75;5.25;;;21.00;99.90;;;;;;1880031;76;21057;-77
2022/08/28 05:40:26;;;;;;;6.40;5.50;;;21.20;99.90;;;;;;1937952;72;22170;-77
2022/08/28 05:43:33;;;;;;;5.70;5.20;;;21.20;99.90;;;;;;1904230;75;21197;-77
2022/08/28 05:46:26;;;;;;;5.50;5.10;;;21.30;99.90;;;;;;1884447;75;21138;-77
2022/08/28 05:49:19;;;;;;;7.50;5.40;;;21.30;99.90;;;;;;1894035;75;21099;-76
2022/08/28 05:52:10;;;;;;;6.62;6.03;;;21.40;99.90;;;;;;1915307;75;21117;-77
2022/08/28 05:55:01;;;;;;;6.17;5.67;;;21.50;99.90;;;;;;1901113;75;21161;-77
2022/08/28 05:57:52;;;;;;;6.00;5.47;;;21.60;99.90;;;;;;1906163;75;21146;-78
2022/08/28 06:00:44;;;;;;;5.60;5.10;;;21.60;99.90;;;;;;1898337;75;21605;-79
2022/08/28 06:03:37;;;;;;;5.97;4.90;;;21.70;99.90;;;;;;1849020;76;21125;-77
2022/08/28 06:06:33;;;;;;;7.03;5.60;;;21.70;99.90;;;;;;1884985;75;21149;-77
2022/08/28 06:09:27;;;;;;;7.22;5.22;;;21.80;99.90;;;;;;1888444;75;21055;-77
2022/08/28 06:12:20;;;;;;;5.70;4.97;;;21.80;99.90;;;;;;1885648;75;21059;-80
2022/08/28 06:15:12;;;;;;;6.10;5.08;;;21.80;99.90;;;;;;1903435;75;21176;-82
2022/08/28 06:18:04;;;;;;;6.65;5.12;;;21.90;99.90;;;;;;1885572;75;21067;-81
2022/08/28 06:20:55;;;;;;;7.53;5.20;;;21.90;99.90;;;;;;1891688;75;21131;-81
2022/08/28 06:23:47;;;;;;;5.53;5.03;;;21.90;99.90;;;;;;1903691;74;21156;-82
2022/08/28 06:26:38;;;;;;;5.37;4.92;;;21.80;99.90;;;;;;1886439;75;21160;-79
2022/08/28 06:29:29;;;;;;;5.30;4.80;;;21.80;99.90;;;;;;1907642;75;21039;-80
2022/08/28 06:32:21;;;;;;;5.37;4.95;;;21.80;99.90;;;;;;1887371;75;21092;-80
2022/08/28 06:35:12;;;;;;;5.20;4.70;;;21.80;99.90;;;;;;1903665;74;21055;-80
2022/08/28 06:38:04;;;;;;;5.50;5.00;;;21.80;99.90;;;;;;1910913;75;21107;-81
2022/08/28 06:40:57;;;;;;;5.22;4.83;;;21.80;99.90;;;;;;1907570;74;21078;-77
2022/08/28 06:46:29;;;;;;;6.10;5.50;;;21.80;99.90;;;;;;1941511;72;22265;-80
2022/08/28 06:51:59;;;;;;;5.70;5.10;;;22.00;99.90;;;;;;1938938;72;22155;-80
2022/08/28 06:54:50;;;;;;;6.20;5.60;;;22.00;99.90;;;;;;1903103;75;21137;-85
2022/08/28 06:57:43;;;;;;;7.58;5.20;;;22.10;99.90;;;;;;1887236;75;21137;-84
2022/08/28 07:00:41;;;;;;;7.05;5.33;;;22.10;99.90;;;;;;1889375;75;21117;-84
2022/08/28 07:03:33;;;;;;;6.12;5.35;;;22.10;99.90;;;;;;1893596;75;21615;-85
2022/08/28 07:06:26;;;;;;;5.62;5.12;;;22.10;99.90;;;;;;1885735;75;21141;-85
2022/08/28 07:09:17;;;;;;;5.65;5.15;;;22.20;99.90;;;;;;1890478;75;21043;-84
2022/08/28 07:12:09;;;;;;;5.97;5.47;;;22.20;99.90;;;;;;1889914;75;21063;-84
2022/08/28 07:15:10;;;;;;;5.95;5.25;;;22.30;99.90;;;;;;1891402;75;21057;-84
2022/08/28 07:18:01;;;;;;;6.00;5.40;;;22.30;99.90;;;;;;1890436;75;21191;-85
2022/08/28 07:21:00;;;;;;;5.70;5.20;;;22.40;99.90;;;;;;1899203;75;21260;-84
2022/08/28 07:23:52;;;;;;;6.70;6.00;;;22.50;99.90;;;;;;1902141;75;21738;-85
2022/08/28 07:26:44;;;;;;;7.20;5.70;;;22.40;99.90;;;;;;1898812;75;21194;-83
2022/08/28 07:29:35;;;;;;;6.30;5.17;;;22.50;99.90;;;;;;1900585;75;21081;-85
2022/08/28 07:32:27;;;;;;;6.35;5.75;;;22.60;99.90;;;;;;1894026;75;21147;-86
2022/08/28 07:35:19;;;;;;;5.90;5.40;;;22.50;99.90;;;;;;1890332;75;21067;-85
2022/08/28 07:38:11;;;;;;;5.75;5.35;;;22.60;99.90;;;;;;1898032;75;21094;-85
2022/08/28 07:41:02;;;;;;;6.28;5.67;;;22.60;99.90;;;;;;1902575;75;21051;-85
2022/08/28 07:47:05;;;;;;;6.25;5.65;;;22.50;99.90;;;;;;1896062;75;21120;-84
2022/08/28 07:49:59;;;;;;;5.95;5.42;;;22.60;99.90;;;;;;1893968;75;21132;-85
2022/08/28 07:52:50;;;;;;;6.05;5.45;;;22.60;99.90;;;;;;1909409;74;21126;-86
2022/08/28 07:55:47;;;;;;;6.60;5.47;;;22.60;99.90;;;;;;1854849;76;21084;-86
2022/08/28 07:58:56;;;;;;;7.55;5.22;;;22.60;99.90;;;;;;1844394;77;21084;-80
2022/08/28 08:01:50;;;;;;;7.35;5.37;;;22.60;99.90;;;;;;1910086;74;21054;-76
2022/08/28 08:04:41;;;;;;;5.60;5.10;;;22.60;99.90;;;;;;1878092;76;21085;-77
2022/08/28 08:07:33;;;;;;;5.47;4.97;;;22.70;99.90;;;;;;1901868;74;21133;-77
2022/08/28 08:10:24;;;;;;;6.72;6.12;;;22.70;99.90;;;;;;1869876;76;21188;-77
2022/08/28 08:13:17;;;;;;;6.05;5.45;;;22.70;99.90;;;;;;1913285;74;21222;-76
2022/08/28 08:18:55;;;;;;;5.95;5.35;;;22.80;99.90;;;;;;1945569;72;22244;-84
2022/08/28 08:25:11;;;;;;;6.80;5.67;;;22.90;99.90;;;;;;1904239;73;22311;-87
2022/08/28 08:28:02;;;;;;;7.05;5.37;;;22.90;99.90;;;;;;1820333;77;21114;-85
2022/08/28 08:31:05;;;;;;;6.83;5.30;;;22.90;99.90;;;;;;1908781;73;21061;-86
2022/08/28 08:34:00;;;;;;;6.00;5.40;;;23.00;99.90;;;;;;1912384;73;21155;-90
2022/08/28 08:36:51;;;;;;;6.47;5.78;;;23.00;99.90;;;;;;1911517;73;21110;-86
2022/08/28 08:39:43;;;;;;;6.30;5.50;;;23.00;99.90;;;;;;1902943;74;21152;-89
2022/08/28 08:42:37;;;;;;;6.03;5.22;;;23.00;99.90;;;;;;1896696;73;21228;-89
2022/08/28 08:45:29;;;;;;;6.25;5.65;;;23.00;99.90;;;;;;1909891;73;21065;-86
2022/08/28 08:51:13;;;;;;;10.95;7.40;;;23.10;99.90;;;;;;1922494;72;22286;-94
2022/08/28 08:56:48;;;;;;;9.58;6.03;;;23.20;99.90;;;;;;1936331;72;22117;-89
2022/08/28 08:59:40;;;;;;;6.15;5.55;;;23.30;99.90;;;;;;1932823;74;21181;-91
2022/08/28 09:05:16;;;;;;;8.43;7.35;;;23.50;99.90;;;;;;1938916;72;22538;-76
2022/08/28 09:08:29;;;;;;;6.37;5.78;;;23.70;99.90;;;;;;1892897;75;21111;-76
2022/08/28 09:14:08;;;;;;;6.85;5.20;;;24.00;99.90;;;;;;1958036;72;22212;-82
2022/08/28 09:17:00;;;;;;;6.25;5.58;;;24.10;99.90;;;;;;1931873;73;21142;-80
2022/08/28 09:19:52;;;;;;;5.85;5.00;;;24.20;99.90;;;;;;1934462;73;21090;-76
2022/08/28 09:22:46;;;;;;;5.75;5.28;;;24.30;99.90;;;;;;1926582;73;21123;-76
2022/08/28 09:28:51;;;;;;;6.42;5.22;;;24.50;99.90;;;;;;1950309;72;22697;-76
2022/08/28 09:31:43;;;;;;;6.65;5.65;;;24.60;99.90;;;;;;1920579;73;21047;-75
2022/08/28 09:34:35;;;;;;;6.35;5.47;;;24.60;99.90;;;;;;1924514;73;21104;-82
2022/08/28 09:37:38;;;;;;;6.78;5.30;;;24.70;99.90;;;;;;1929103;73;21062;-87
2022/08/28 09:43:38;;;;;;;6.47;5.83;;;24.90;99.90;;;;;;1931439;73;21226;-80
2022/08/28 09:46:33;;;;;;;5.33;4.83;;;24.90;99.90;;;;;;1925869;73;21085;-80
2022/08/28 09:52:10;;;;;;;5.53;5.00;;;25.00;99.90;;;;;;1937277;72;22195;-79
2022/08/28 09:57:43;;;;;;;5.87;5.33;;;25.30;99.90;;;;;;1941060;72;22114;-78
2022/08/28 10:00:44;;;;;;;5.17;4.78;;;25.40;99.90;;;;;;1889018;75;21140;-77
2022/08/28 10:03:41;;;;;;;5.37;4.90;;;25.40;99.90;;;;;;1884457;75;21063;-77
2022/08/28 10:06:35;;;;;;;5.92;5.33;;;25.40;99.90;;;;;;1893979;75;21094;-77
2022/08/28 10:09:32;;;;;;;5.50;5.00;;;25.50;99.90;;;;;;1904843;75;21136;-77
2022/08/28 10:12:39;;;;;;;6.12;4.97;;;25.60;99.90;;;;;;1907545;75;21110;-78
2022/08/28 10:15:36;;;;;;;5.20;4.75;;;25.70;99.90;;;;;;1905187;75;21569;-77
2022/08/28 10:18:31;;;;;;;;;;;25.70;99.90;;;;;;1904891;75;21108;-77
2022/08/28 10:21:27;;;;;;;5.92;4.95;;;25.60;99.90;;;;;;1894566;75;20121;-77
2022/08/28 10:24:25;;;;;;;5.30;4.90;;;25.50;99.90;;;;;;1894640;75;21098;-77
2022/08/28 10:30:11;;;;;;;5.53;5.03;;;25.60;99.90;;;;;;1932306;72;22170;-76
2022/08/28 10:33:05;;;;;;;;;;;25.60;99.90;;;;;;1896043;75;21058;-78
2022/08/28 10:36:00;;;;;;;5.15;4.75;;;25.70;99.90;;;;;;1901074;75;20194;-78
2022/08/28 10:38:55;;;;;;;6.50;4.85;;;25.70;99.90;;;;;;1884414;76;21135;-78
2022/08/28 10:41:50;;;;;;;5.60;5.10;;;25.80;99.90;;;;;;1888217;75;21059;-78
2022/08/28 10:44:46;;;;;;;5.35;4.95;;;25.80;99.90;;;;;;1895324;75;21059;-80
2022/08/28 10:47:40;;;;;;;5.35;4.95;;;26.00;99.90;;;;;;1884451;75;21050;-80
2022/08/28 10:50:35;;;;;;;6.40;4.87;;;26.00;99.90;;;;;;1903526;75;21102;-77
2022/08/28 10:56:11;;;;;;;5.15;4.75;;;26.00;99.90;;;;;;1918521;72;22673;-77
2022/08/28 10:59:09;;;;;;;5.45;5.05;;;26.10;99.90;;;;;;1903096;74;21557;-79
2022/08/28 11:02:03;;;;;;;6.08;5.37;;;26.20;99.90;;;;;;1912419;74;21506;-81
2022/08/28 11:04:56;;;;;;;5.90;5.30;;;26.20;99.90;;;;;;1906960;74;21134;-81
2022/08/28 11:07:51;;;;;;;6.35;4.72;;;26.40;99.90;;;;;;1908191;75;21134;-81
2022/08/28 11:10:48;;;;;;;5.50;4.97;;;26.50;99.90;;;;;;1914466;74;21576;-81
2022/08/28 11:13:52;;;;;;;4.97;4.55;;;26.70;99.90;;;;;;1917209;75;21232;-82
2022/08/28 11:22:33;;;;;;;4.90;4.50;;;26.80;99.90;;;;;;1937617;72;22198;-82
2022/08/28 11:25:27;;;;;;;4.85;4.45;;;26.80;99.90;;;;;;1895334;75;21100;-81
2022/08/28 11:28:22;;;;;;;4.70;4.30;;;26.90;99.90;;;;;;1890952;75;21545;-81
2022/08/28 11:31:41;;;;;;;4.67;4.28;;;26.80;99.90;;;;;;1891957;75;21063;-82
2022/08/28 11:35:00;;;;;;;4.50;4.10;;;26.90;99.90;;;;;;1890272;75;21142;-82
2022/08/28 11:37:54;;;;;;;4.92;4.53;;;27.00;99.90;;;;;;1891630;75;21183;-83
2022/08/28 11:43:46;;;;;;;5.03;4.35;;;27.20;99.90;;;;;;1956832;72;20112;-86
2022/08/28 11:46:46;;;;;;;5.33;4.67;;;27.30;99.90;;;;;;1934535;73;21091;-81
2022/08/28 11:49:48;;;;;;;12.88;11.65;;;27.30;99.90;;;;;;1917107;73;21126;-86
2022/08/28 11:53:03;;;;;;;5.10;4.60;;;27.30;99.90;;;;;;1917494;75;21130;-80
2022/08/28 11:58:59;;;;;;;5.58;5.00;;;27.60;99.90;;;;;;1943590;72;22129;-78
2022/08/28 12:01:52;;;;;;;4.60;4.25;;;27.60;99.90;;;;;;1910147;75;21099;-77
2022/08/28 12:04:44;;;;;;;6.03;4.25;;;27.70;99.90;;;;;;1905971;74;21101;-79
2022/08/28 12:07:40;;;;;;;5.50;4.90;;;27.60;99.90;;;;;;1899563;75;21112;-85
2022/08/28 12:10:54;;;;;;;4.78;4.37;;;27.70;99.90;;;;;;1908705;75;21669;-92
2022/08/28 12:13:51;;;;;;;4.47;4.12;;;27.90;99.90;;;;;;1901149;75;21059;-88
2022/08/28 12:17:19;;;;;;;4.75;4.35;;;27.90;99.90;;;;;;1907142;74;21083;-87
2022/08/28 12:20:15;;;;;;;10.95;9.60;;;28.00;99.90;;;;;;1905651;75;21140;-85
2022/08/28 12:23:45;;;;;;;4.75;4.10;;;28.20;99.90;;;;;;1917232;75;21059;-78
2022/08/28 12:29:26;;;;;;;4.60;4.20;;;28.10;99.90;;;;;;1929142;72;22242;-75
2022/08/28 12:32:42;;;;;;;4.35;3.90;;;28.10;99.90;;;;;;1902134;74;21539;-86
2022/08/28 12:45:05;;;;;;;3.80;3.50;;;28.10;99.90;;;;;;1924610;72;26295;-75
2022/08/28 12:47:59;;;;;;;3.70;3.40;;;28.20;99.90;;;;;;1895349;75;21489;-75
2022/08/28 12:53:43;;;;;;;4.10;3.80;;;28.40;99.90;;;;;;1939511;72;22259;-74
2022/08/28 12:56:36;;;;;;;4.62;4.10;;;28.40;99.90;;;;;;1910226;75;21094;-75
2022/08/28 12:59:33;;;;;;;4.05;3.72;;;28.50;99.90;;;;;;1894859;75;21117;-75
2022/08/28 13:02:28;;;;;;;5.20;3.80;;;28.60;99.90;;;;;;1886717;75;21133;-74
2022/08/28 13:05:33;;;;;;;4.55;4.10;;;28.70;99.90;;;;;;1889577;75;21176;-74
2022/08/28 13:08:24;;;;;;;4.30;3.90;;;28.70;99.90;;;;;;1886028;75;21117;-75
2022/08/28 13:11:20;;;;;;;4.58;4.25;;;29.00;99.90;;;;;;1886460;75;21146;-75
2022/08/28 13:14:13;;;;;;;4.83;4.25;;;28.90;99.90;;;;;;1885399;75;21062;-75
2022/08/28 13:17:05;;;;;;;4.85;4.00;;;28.70;99.90;;;;;;1884592;76;21106;-75
2022/08/28 13:20:04;;;;;;;4.42;4.12;;;28.70;99.90;;;;;;1885336;75;21082;-75
2022/08/28 13:22:58;;;;;;;5.17;4.35;;;28.80;99.90;;;;;;1901687;75;21137;-75
2022/08/28 13:25:53;;;;;;;4.47;4.03;;;28.90;99.90;;;;;;1898348;75;21035;-76
2022/08/28 13:28:44;;;;;;;4.25;3.95;;;28.90;99.90;;;;;;1898022;75;21475;-76
2022/08/28 13:31:38;;;;;;;3.90;3.60;;;29.00;99.90;;;;;;1898714;75;21621;-89
2022/08/28 13:34:39;;;;;;;6.17;5.67;;;28.90;99.90;;;;;;1901729;75;21191;-84
2022/08/28 13:37:47;;;;;;;4.90;3.62;;;28.90;99.90;;;;;;1893262;75;21150;-77
2022/08/28 13:40:51;;;;;;;;;;;29.00;99.90;;;;;;1900652;75;21103;-78
2022/08/28 13:46:26;;;;;;;3.85;3.45;;;29.20;99.90;;;;;;1925890;72;22168;-76
2022/08/28 13:49:17;;;;;;;4.03;3.70;;;29.40;99.90;;;;;;1903056;73;21232;-75
2022/08/28 13:52:11;;;;;;;4.15;3.80;;;29.50;99.90;;;;;;1922155;73;21077;-75
2022/08/28 13:55:05;;;;;;;5.58;3.77;;;29.40;99.90;;;;;;1907143;73;21135;-75
2022/08/28 13:57:59;;;;;;;4.08;3.65;;;29.40;99.90;;;;;;1932068;73;21051;-75
2022/08/28 14:00:51;;;;;;;3.80;3.50;;;29.40;99.90;;;;;;1915030;75;21572;-75
2022/08/28 14:06:26;;;;;;;3.65;3.35;;;29.60;99.90;;;;;;1924999;72;22112;-76
2022/08/28 14:09:20;;;;;;;4.03;3.60;;;29.80;99.90;;;;;;1940928;73;21120;-76
2022/08/28 14:12:12;;;;;;;4.20;3.80;;;30.40;99.90;;;;;;1923564;73;21043;-76
2022/08/28 14:15:05;;;;;;;4.25;3.85;;;30.80;99.90;;;;;;1930419;73;21179;-74
2022/08/28 14:21:04;;;;;;;3.80;3.50;;;31.20;99.90;;;;;;1934391;73;21063;-76
2022/08/28 14:26:39;;;;;;;3.60;3.40;;;31.60;99.90;;;;;;1934554;72;22284;-74
2022/08/28 14:29:31;;;;;;;25.48;21.07;;;31.70;99.90;;;;;;1903971;75;21059;-87
2022/08/28 14:32:23;;;;;;;3.92;3.62;;;31.90;99.90;;;;;;1898243;75;21137;-72
2022/08/28 14:35:15;;;;;;;4.17;3.77;;;31.80;99.90;;;;;;1896391;75;21043;-73
2022/08/28 14:38:09;;;;;;;3.87;3.58;;;32.00;99.90;;;;;;1898499;74;21151;-72
2022/08/28 14:41:00;;;;;;;4.85;3.60;;;32.10;99.90;;;;;;1894532;75;21517;-72
2022/08/28 14:46:32;;;;;;;3.87;3.40;;;32.10;99.90;;;;;;1939079;72;22131;-72
2022/08/28 14:49:23;;;;;;;3.50;3.25;;;32.60;99.90;;;;;;1912480;75;21117;-72
2022/08/28 14:52:14;;;;;;;4.00;3.67;;;32.80;99.90;;;;;;1910444;75;21156;-72
2022/08/28 14:55:09;;;;;;;4.00;3.70;;;32.60;99.90;;;;;;1907250;75;21150;-72
2022/08/28 14:58:01;;;;;;;3.92;3.60;;;32.40;99.90;;;;;;1913860;75;21095;-73
2022/08/28 15:00:53;;;;;;;3.75;3.45;;;32.40;99.90;;;;;;1901421;75;21124;-73
2022/08/28 15:03:47;;;;;;;3.90;3.60;;;32.20;99.90;;;;;;1911431;75;21058;-86
2022/08/28 15:06:41;;;;;;;3.77;3.47;;;32.50;99.90;;;;;;1910284;75;21073;-71
2022/08/28 15:09:34;;;;;;;3.55;3.25;;;32.90;99.00;;;;;;1906731;75;21224;-73
2022/08/28 15:12:35;;;;;;;4.28;3.87;;;32.80;98.80;;;;;;1907720;75;21197;-72
2022/08/28 15:15:28;;;;;;;3.83;3.52;;;32.80;98.30;;;;;;1905408;75;21094;-72
2022/08/28 15:18:20;;;;;;;4.08;3.77;;;32.80;98.40;;;;;;1912165;75;21118;-72
2022/08/28 15:21:16;;;;;;;4.03;3.72;;;33.20;98.20;;;;;;1915911;75;21155;-73
2022/08/28 15:24:09;;;;;;;3.23;3.00;;;33.50;97.40;;;;;;1904013;75;21079;-75
2022/08/28 15:27:01;;;;;;;5.15;3.60;;;33.30;97.50;;;;;;1895999;75;21172;-75
2022/08/28 15:29:52;;;;;;;4.25;3.87;;;33.30;96.90;;;;;;1892964;75;21176;-74
2022/08/28 15:32:46;;;;;;;4.10;3.80;;;33.80;96.50;;;;;;1910254;75;21093;-74
2022/08/28 15:35:37;;;;;;;3.72;3.42;;;33.70;96.00;;;;;;1899618;75;21117;-74
2022/08/28 15:41:22;;;;;;;3.42;3.20;;;33.50;96.00;;;;;;1895797;75;21043;-74
2022/08/28 15:41:31;;;;;;;3.98;3.67;;;33.70;96.00;;;;;;1898790;75;21127;-74
2022/08/28 15:44:22;;;;;;;4.12;3.70;;;34.00;94.90;;;;;;1903807;75;21035;-73
2022/08/28 15:47:13;;;;;;;3.52;3.22;;;33.70;95.10;;;;;;1874722;75;21167;-73
2022/08/28 15:50:10;;;;;;;3.80;3.50;;;33.80;94.20;;;;;;1885099;75;21055;-73
2022/08/28 15:53:03;;;;;;;3.75;3.45;;;33.50;94.00;;;;;;1908525;75;21120;-74
2022/08/28 15:55:59;;;;;;;3.85;3.22;;;33.80;94.20;;;;;;1895338;74;21515;-83
2022/08/28 15:58:51;;;;;;;4.20;3.80;;;34.40;92.80;;;;;;1875931;75;21056;-73
2022/08/28 16:01:46;;;;;;;3.70;3.40;;;34.20;92.80;;;;;;1894377;75;21247;-73
2022/08/28 16:04:41;;;;;;;3.70;3.40;;;33.80;92.30;;;;;;1877760;75;21064;-74
2022/08/28 16:07:32;;;;;;;3.37;3.08;;;32.60;94.00;;;;;;1873080;75;21080;-74
2022/08/28 16:10:25;;;;;;;3.62;3.33;;;31.60;95.30;;;;;;1885756;75;21109;-74
2022/08/28 16:13:16;;;;;;;3.37;3.00;;;31.10;96.20;;;;;;1911216;75;21124;-74
2022/08/28 16:16:19;;;;;;;3.77;3.47;;;31.70;95.70;;;;;;1897005;75;21069;-74
2022/08/28 16:19:10;;;;;;;5.28;3.60;;;32.60;94.70;;;;;;1910328;75;21830;-74
2022/08/28 16:22:03;;;;;;;4.20;3.80;;;33.00;93.80;;;;;;1907045;75;21114;-73
2022/08/28 16:24:56;;;;;;;3.55;3.12;;;33.10;93.40;;;;;;1901374;75;21109;-74
2022/08/28 16:27:48;;;;;;;3.52;3.22;;;33.20;93.10;;;;;;1892616;75;21102;-74
2022/08/28 16:30:41;;;;;;;3.58;3.27;;;33.40;93.00;;;;;;1899306;75;21483;-73
2022/08/28 16:33:34;;;;;;;4.17;3.27;;;33.40;92.50;;;;;;1895343;75;21131;-73
2022/08/28 16:36:25;;;;;;;3.92;3.52;;;33.20;92.70;;;;;;1895997;75;21035;-73
2022/08/28 16:39:17;;;;;;;5.45;3.85;;;33.40;92.40;;;;;;1899088;75;21060;-73
2022/08/28 16:42:09;;;;;;;4.20;3.75;;;33.40;92.10;;;;;;1888560;75;21113;-73
2022/08/28 16:45:00;;;;;;;4.20;3.52;;;33.20;92.20;;;;;;1896663;75;21044;-73
2022/08/28 16:47:52;;;;;;;3.60;3.30;;;33.10;92.30;;;;;;1905808;74;21148;-73
2022/08/28 16:50:45;;;;;;;3.67;3.37;;;33.00;92.30;;;;;;1904722;75;21533;-74
2022/08/28 16:53:37;;;;;;;4.22;3.40;;;32.60;92.60;;;;;;1911698;75;21103;-74
2022/08/28 16:56:34;;;;;;;3.70;3.40;;;32.50;93.00;;;;;;1912100;75;21087;-74
2022/08/28 16:59:27;;;;;;;3.70;3.35;;;32.30;93.50;;;;;;1903386;75;21192;-74